Time;durP1;ratioP1;P1;durP2;ratioP2;P2;SDS_P1;SDS_P2;PMS_P1;PMS_P2;Temp;Humidity;BMP_temperature;BMP_pressure;BME280_temperature;BME280_humidity;BME280_pressure;Samples;Min_cycle;Max_cycle;Signal;HPM_P1;HPM_P2
2022/08/30 00:01:28;;;;;;;3.95;3.55;;;;;;;27.03;55.40;101163.88;5014823;28;20046;-71
2022/08/30 00:03:57;;;;;;;3.78;3.28;;;;;;;27.02;55.34;101154.00;5013852;28;20401;-72
2022/08/30 00:06:27;;;;;;;5.57;3.50;;;;;;;27.03;55.40;101164.72;5013827;28;20050;-71
2022/08/30 00:08:55;;;;;;;4.18;3.40;;;;;;;27.03;55.40;101163.88;5013209;28;20045;-71
2022/08/30 00:11:26;;;;;;;4.85;3.92;;;;;;;27.04;55.50;101151.97;5004734;28;20050;-72
2022/08/30 00:13:55;;;;;;;3.78;3.38;;;;;;;27.03;55.54;101150.28;4994493;28;20050;-71
2022/08/30 00:16:25;;;;;;;3.67;3.38;;;;;;;27.03;55.68;101148.41;4994635;28;20039;-71
2022/08/30 00:18:53;;;;;;;4.85;3.83;;;;;;;27.03;55.59;101142.97;4993884;28;20046;-71
2022/08/30 00:21:21;;;;;;;5.70;3.60;;;;;;;27.04;55.56;101146.53;4993913;28;20053;-71
2022/08/30 00:23:48;;;;;;;5.82;3.38;;;;;;;27.04;55.69;101143.81;4994192;28;20046;-72
2022/08/30 00:26:16;;;;;;;3.95;3.25;;;;;;;27.04;55.86;101138.38;4993798;28;20050;-72
2022/08/30 00:28:43;;;;;;;5.00;3.90;;;;;;;27.04;55.53;101143.81;4993824;28;20042;-71
2022/08/30 00:31:11;;;;;;;3.85;3.42;;;;;;;27.05;55.61;101140.06;4994193;28;20053;-71
2022/08/30 00:33:42;;;;;;;4.43;3.47;;;;;;;27.04;55.78;101130.22;4993741;28;20053;-71
2022/08/30 00:36:09;;;;;;;3.95;3.55;;;;;;;27.03;55.59;101134.81;4993548;28;20057;-72
2022/08/30 00:38:36;;;;;;;4.35;3.50;;;;;;;27.03;55.53;101134.81;4992633;28;20069;-72
2022/08/30 00:41:04;;;;;;;4.82;3.58;;;;;;;27.04;55.75;101133.78;4993773;28;20482;-72
2022/08/30 00:43:34;;;;;;;4.97;3.90;;;;;;;27.04;55.73;101141.94;4993252;28;20057;-72
2022/08/30 00:46:06;;;;;;;3.72;3.15;;;;;;;27.04;55.75;101146.53;4993940;28;20046;-72
2022/08/30 00:48:43;;;;;;;7.15;3.67;;;;;;;27.03;55.48;101148.41;4994277;28;20050;-72
2022/08/30 00:51:14;;;;;;;4.25;3.10;;;;;;;27.04;55.58;101136.50;5013001;28;20417;-72
2022/08/30 00:53:47;;;;;;;4.75;4.13;;;;;;;27.03;55.49;101140.25;5013215;28;20500;-72
2022/08/30 00:56:17;;;;;;;5.55;3.70;;;;;;;27.03;55.46;101145.69;5013677;28;20066;-72
2022/08/30 00:58:49;;;;;;;3.90;3.50;;;;;;;27.04;55.54;101146.53;5012945;28;20089;-72
2022/08/30 01:01:17;;;;;;;4.13;3.73;;;;;;;27.03;55.44;101144.84;5013546;28;20396;-72
2022/08/30 01:03:46;;;;;;;4.95;3.55;;;;;;;27.04;55.57;101144.66;5013133;28;20727;-73
2022/08/30 01:06:15;;;;;;;3.80;3.40;;;;;;;27.04;55.57;101139.22;5013029;28;20057;-72
2022/08/30 01:08:45;;;;;;;4.60;3.50;;;;;;;27.04;55.73;101147.38;5012342;28;20042;-72
2022/08/30 01:11:17;;;;;;;4.07;3.67;;;;;;;27.04;55.67;101143.81;5012721;28;20386;-72
2022/08/30 01:13:46;;;;;;;3.87;3.33;;;;;;;27.04;55.61;101144.66;5012957;28;20050;-72
2022/08/30 01:16:14;;;;;;;3.97;3.58;;;;;;;27.04;55.65;101146.53;5013328;28;20068;-72
2022/08/30 01:18:43;;;;;;;4.13;3.30;;;;;;;27.03;55.54;101148.41;5013216;28;20489;-72
2022/08/30 01:21:48;;;;;;;3.83;3.42;;;;;;;27.05;55.55;101148.22;5013236;28;20397;-71
2022/08/30 01:24:17;;;;;;;4.45;3.53;;;;;;;27.04;55.76;101146.53;5011158;28;20427;-72
2022/08/30 01:26:45;;;;;;;4.75;3.45;;;;;;;27.04;55.98;101141.09;5010975;28;20050;-72
2022/08/30 01:29:18;;;;;;;4.07;3.60;;;;;;;27.04;55.88;101144.66;5010605;28;20100;-72
2022/08/30 01:31:46;;;;;;;4.28;3.70;;;;;;;27.04;55.70;101144.66;5010458;28;20046;-73
2022/08/30 01:34:13;;;;;;;4.05;3.47;;;;;;;27.04;55.69;101147.38;5010519;28;20069;-72
2022/08/30 01:36:43;;;;;;;4.20;3.58;;;;;;;27.04;55.79;101149.25;5010955;28;20065;-72
2022/08/30 01:39:14;;;;;;;3.45;3.15;;;;;;;27.04;55.85;101143.81;5010770;28;20049;-72
2022/08/30 01:41:42;;;;;;;4.30;3.55;;;;;;;27.04;55.82;101147.38;5010888;28;20081;-72
2022/08/30 01:44:11;;;;;;;4.68;3.42;;;;;;;27.04;55.81;101146.53;5011284;28;20054;-72
2022/08/30 01:46:46;;;;;;;4.53;3.60;;;;;;;27.04;55.75;101144.66;5010423;28;20065;-72
2022/08/30 01:49:17;;;;;;;4.55;4.13;;;;;;;27.03;55.73;101142.97;5010854;28;20157;-72
2022/08/30 01:51:55;;;;;;;5.25;3.72;;;;;;;27.03;55.53;101140.25;5010555;28;20049;-72
2022/08/30 01:54:29;;;;;;;6.13;3.33;;;;;;;27.05;55.99;101145.50;5011109;28;20062;-72
2022/08/30 01:57:04;;;;;;;4.95;3.60;;;;;;;27.02;55.69;101135.84;5013845;28;20057;-72
2022/08/30 01:59:32;;;;;;;4.57;3.78;;;;;;;27.03;56.04;101139.41;5014170;28;20050;-72
2022/08/30 02:01:59;;;;;;;4.53;3.65;;;;;;;27.02;55.64;101138.56;4998512;28;20065;-72
2022/08/30 02:04:26;;;;;;;5.50;3.97;;;;;;;27.03;55.75;101142.97;4995321;28;20490;-73
2022/08/30 02:06:54;;;;;;;4.03;3.67;;;;;;;27.03;55.94;101145.69;4996561;28;20397;-72
2022/08/30 02:09:21;;;;;;;3.50;2.78;;;;;;;27.03;55.96;101147.56;5003154;28;20045;-72
2022/08/30 02:11:49;;;;;;;4.82;3.83;;;;;;;27.02;55.71;101154.88;5004630;28;20046;-72
2022/08/30 02:14:16;;;;;;;4.43;3.65;;;;;;;27.03;56.07;101151.13;5011816;28;20406;-72
2022/08/30 02:16:47;;;;;;;4.78;3.85;;;;;;;27.03;56.08;101150.28;4997079;28;20047;-72
2022/08/30 02:19:16;;;;;;;5.80;3.58;;;;;;;27.03;55.71;101155.72;4996135;28;20073;-72
2022/08/30 02:21:44;;;;;;;4.88;3.78;;;;;;;27.03;55.97;101147.56;4996034;28;20046;-72
2022/08/30 02:24:11;;;;;;;6.78;4.35;;;;;;;27.03;55.88;101145.69;4996614;28;20500;-72
2022/08/30 02:26:38;;;;;;;5.40;4.22;;;;;;;27.03;56.14;101151.13;4995941;28;20053;-72
2022/08/30 02:29:06;;;;;;;5.25;4.32;;;;;;;27.03;56.20;101153.00;4996025;28;20375;-72
2022/08/30 02:31:34;;;;;;;4.63;4.10;;;;;;;27.03;56.00;101150.28;4996153;28;20051;-71
2022/08/30 02:34:01;;;;;;;5.30;4.30;;;;;;;27.01;55.92;101153.16;4996065;28;20485;-72
2022/08/30 02:36:29;;;;;;;5.90;4.68;;;;;;;27.00;55.58;101142.47;4996360;28;20046;-71
2022/08/30 02:38:56;;;;;;;5.18;4.68;;;;;;;26.99;55.46;101140.78;4995718;28;20042;-71
2022/08/30 02:41:24;;;;;;;5.10;4.57;;;;;;;26.98;55.69;101133.63;4995585;28;20054;-71
2022/08/30 02:43:51;;;;;;;5.03;4.63;;;;;;;26.98;55.88;101144.50;4995873;28;20069;-71
2022/08/30 02:46:18;;;;;;;5.47;4.38;;;;;;;26.96;55.66;101149.28;4995581;28;20050;-71
2022/08/30 02:48:46;;;;;;;7.07;4.68;;;;;;;26.96;55.68;101158.28;4997894;28;20053;-74
2022/08/30 02:51:13;;;;;;;4.93;4.43;;;;;;;26.95;55.57;101145.72;5015578;28;20049;-75
2022/08/30 02:53:42;;;;;;;5.40;4.38;;;;;;;26.93;55.18;101145.03;5015132;28;20045;-75
2022/08/30 02:56:11;;;;;;;5.13;4.28;;;;;;;26.92;55.62;101139.78;5015604;28;20056;-73
2022/08/30 02:58:41;;;;;;;5.20;4.65;;;;;;;26.90;55.43;101136.38;5015144;28;20401;-73
2022/08/30 03:01:13;;;;;;;6.13;4.55;;;;;;;26.86;55.76;101139.47;5015371;28;20046;-73
2022/08/30 03:03:42;;;;;;;;;;;;;;;26.85;55.78;101136.91;5015585;28;20049;-73
2022/08/30 03:06:09;;;;;;;4.85;4.00;;;;;;;26.84;55.89;101135.22;5014508;28;19929;-73
2022/08/30 03:08:38;;;;;;;6.88;4.90;;;;;;;26.85;55.78;101145.06;5015099;28;20053;-73
2022/08/30 03:11:06;;;;;;;4.57;4.18;;;;;;;26.83;55.80;101153.41;5014364;28;20049;-72
2022/08/30 03:13:33;;;;;;;5.85;4.28;;;;;;;26.84;55.72;101162.38;5014281;28;20045;-73
2022/08/30 03:16:01;;;;;;;5.22;4.72;;;;;;;26.84;55.69;101162.38;5014921;28;20049;-72
2022/08/30 03:18:28;;;;;;;5.78;4.38;;;;;;;26.83;55.77;101171.56;5015445;28;20125;-73
2022/08/30 03:20:55;;;;;;;5.53;4.53;;;;;;;26.83;55.88;101177.00;5015069;28;20050;-73
2022/08/30 03:23:23;;;;;;;4.40;3.97;;;;;;;26.83;56.00;101177.00;5015081;28;20069;-73
2022/08/30 03:25:52;;;;;;;6.55;4.60;;;;;;;26.84;56.02;101174.09;5013266;28;20052;-73
2022/08/30 03:28:19;;;;;;;6.80;4.20;;;;;;;26.84;56.18;101184.13;4994734;28;20049;-73
2022/08/30 03:30:47;;;;;;;6.10;4.13;;;;;;;26.84;55.64;101184.13;4993423;28;20055;-72
2022/08/30 03:33:15;;;;;;;5.07;4.60;;;;;;;26.82;55.67;101178.88;4994870;28;20050;-72
2022/08/30 03:35:44;;;;;;;5.00;4.50;;;;;;;26.80;55.75;101174.63;4995558;28;20050;-73
2022/08/30 03:38:12;;;;;;;5.43;4.30;;;;;;;26.79;55.74;101167.50;4994578;28;20047;-73
2022/08/30 03:40:39;;;;;;;5.90;4.50;;;;;;;26.78;55.88;101169.38;4994677;28;20057;-73
2022/08/30 03:43:06;;;;;;;5.22;4.40;;;;;;;26.78;56.05;101157.63;4995081;28;20414;-73
2022/08/30 03:45:34;;;;;;;4.90;4.30;;;;;;;26.76;55.95;101154.25;4994932;28;20050;-73
2022/08/30 03:48:02;;;;;;;6.80;4.43;;;;;;;26.75;55.91;101150.69;4994852;28;20046;-73
2022/08/30 03:50:30;;;;;;;6.60;4.85;;;;;;;26.74;55.84;101149.00;5011052;28;20046;-73
2022/08/30 03:52:59;;;;;;;6.78;4.63;;;;;;;26.73;55.85;101131.00;5013960;28;20053;-73
2022/08/30 03:55:29;;;;;;;6.63;4.35;;;;;;;26.74;55.81;101140.88;5013939;28;20050;-73
2022/08/30 03:57:56;;;;;;;4.88;4.20;;;;;;;26.75;55.97;101145.25;5014148;28;20042;-73
2022/08/30 04:00:25;;;;;;;4.53;4.13;;;;;;;26.76;56.08;101135.25;5013937;28;20042;-73
2022/08/30 04:02:52;;;;;;;5.03;4.53;;;;;;;26.76;55.99;101146.09;5014059;28;20485;-73
2022/08/30 04:05:20;;;;;;;5.50;5.00;;;;;;;26.76;56.10;101146.09;5014292;28;20122;-73
2022/08/30 04:07:48;;;;;;;6.68;4.53;;;;;;;26.77;55.70;101156.78;5013969;28;20050;-73
2022/08/30 04:10:15;;;;;;;7.10;5.00;;;;;;;26.77;55.81;101159.50;5013860;28;20493;-73
2022/08/30 04:12:42;;;;;;;5.18;4.68;;;;;;;26.77;56.24;101150.50;5009397;28;20042;-73
2022/08/30 04:15:17;;;;;;;5.30;4.80;;;;;;;26.77;56.07;101153.22;4994271;28;20061;-73
2022/08/30 04:17:46;;;;;;;5.82;5.03;;;;;;;26.76;56.20;101159.69;4993334;28;20050;-73
2022/08/30 04:20:13;;;;;;;6.05;5.03;;;;;;;26.77;55.70;101172.25;4994276;28;20486;-73
2022/08/30 04:22:43;;;;;;;5.40;4.90;;;;;;;26.76;55.59;101176.81;4993826;28;20046;-73
2022/08/30 04:25:10;;;;;;;5.15;4.65;;;;;;;26.75;55.39;101187.88;4993961;28;20048;-73
2022/08/30 04:27:44;;;;;;;5.78;5.10;;;;;;;26.74;55.46;101205.19;4994444;28;20059;-73
2022/08/30 04:30:13;;;;;;;5.80;4.80;;;;;;;26.70;55.40;101223.72;4993882;28;20046;-72
2022/08/30 04:32:41;;;;;;;6.00;5.22;;;;;;;26.70;55.48;101225.56;4994191;28;20474;-72
2022/08/30 04:35:09;;;;;;;6.47;5.28;;;;;;;26.68;55.57;101230.31;4994361;28;20351;-72
2022/08/30 04:37:37;;;;;;;6.22;4.55;;;;;;;26.66;55.60;101225.06;4994065;28;20057;-72
2022/08/30 04:40:05;;;;;;;5.53;5.03;;;;;;;26.67;55.70;101225.91;4993878;28;20046;-72
2022/08/30 04:42:34;;;;;;;5.47;4.53;;;;;;;26.66;55.35;101232.34;4994144;28;20046;-73
2022/08/30 04:45:13;;;;;;;6.55;5.07;;;;;;;26.65;55.53;101233.38;4993644;28;20049;-72
2022/08/30 04:47:42;;;;;;;5.50;5.00;;;;;;;26.66;55.53;101243.19;4993601;28;20057;-73
2022/08/30 04:50:13;;;;;;;5.53;5.03;;;;;;;26.66;55.33;101256.78;4993900;28;20050;-72
2022/08/30 04:52:42;;;;;;;5.93;5.20;;;;;;;26.66;55.50;101254.94;4993695;28;20034;-73
2022/08/30 04:55:10;;;;;;;5.47;4.97;;;;;;;26.66;55.21;101254.06;4993490;28;20042;-73
2022/08/30 04:57:39;;;;;;;5.45;4.95;;;;;;;26.63;55.30;101250.69;4993447;28;20409;-73
2022/08/30 05:00:10;;;;;;;7.57;4.88;;;;;;;26.63;55.54;101242.53;4993954;28;20054;-73
2022/08/30 05:02:41;;;;;;;5.75;5.15;;;;;;;26.63;55.72;101244.41;4993400;28;20053;-73
2022/08/30 05:07:54;;;;;;;6.55;5.30;;;;;;;26.62;55.52;101251.72;4992588;28;20054;-73
2022/08/30 05:10:23;;;;;;;4.90;4.45;;;;;;;26.63;55.19;101264.28;4994366;28;20053;-73
2022/08/30 05:12:50;;;;;;;6.78;5.45;;;;;;;26.64;55.62;101259.69;5003932;28;20109;-73
2022/08/30 05:15:18;;;;;;;5.75;5.18;;;;;;;26.65;55.42;101265.97;4996176;28;20505;-73
2022/08/30 05:17:45;;;;;;;5.63;5.03;;;;;;;26.66;55.54;101267.66;4993494;28;20050;-73
2022/08/30 05:20:13;;;;;;;7.43;5.28;;;;;;;26.63;55.25;101274.28;4993887;28;20065;-74
2022/08/30 05:22:48;;;;;;;9.05;5.53;;;;;;;26.63;55.24;101275.13;4993731;28;20053;-73
2022/08/30 05:25:35;;;;;;;6.50;5.90;;;;;;;26.64;55.16;101278.69;4993478;28;20077;-73
2022/08/30 05:28:03;;;;;;;7.63;5.03;;;;;;;26.62;55.19;101275.31;4994064;28;20050;-73
2022/08/30 05:30:32;;;;;;;6.25;5.60;;;;;;;26.61;54.92;101282.59;4996426;28;20291;-73
2022/08/30 05:33:01;;;;;;;6.90;5.03;;;;;;;26.61;54.83;101277.16;4997244;28;20435;-73
2022/08/30 05:35:28;;;;;;;6.18;5.03;;;;;;;26.63;54.88;101283.28;4997396;28;20050;-73
2022/08/30 05:37:56;;;;;;;6.75;5.53;;;;;;;26.63;55.00;101286.00;4997524;28;20050;-72
2022/08/30 05:40:24;;;;;;;5.28;4.57;;;;;;;26.63;54.63;101286.00;4997767;28;20046;-72
2022/08/30 05:42:55;;;;;;;8.02;5.47;;;;;;;26.63;54.63;101283.28;4997104;28;20046;-72
2022/08/30 05:45:22;;;;;;;5.72;5.10;;;;;;;26.66;54.58;101281.22;4997260;28;20470;-73
2022/08/30 05:47:50;;;;;;;6.35;5.13;;;;;;;26.65;53.92;101276.81;4996585;28;20054;-71
2022/08/30 05:50:17;;;;;;;6.80;5.80;;;;;;;26.64;53.93;101278.69;5011464;28;20050;-71
2022/08/30 05:52:44;;;;;;;8.27;5.75;;;;;;;26.63;53.97;101275.13;5015184;28;20061;-71
2022/08/30 05:55:12;;;;;;;6.28;5.03;;;;;;;26.64;54.13;101256.97;5015939;28;20050;-71
2022/08/30 05:57:40;;;;;;;5.40;4.88;;;;;;;26.65;53.93;101260.53;5016459;28;20482;-71
2022/08/30 06:00:12;;;;;;;5.53;4.78;;;;;;;26.66;53.86;101256.78;5016445;28;20050;-72
2022/08/30 06:02:41;;;;;;;5.15;4.70;;;;;;;26.66;54.01;101259.50;5016796;28;20049;-71
2022/08/30 06:05:09;;;;;;;5.78;4.90;;;;;;;26.66;53.74;101256.78;5016457;28;20054;-72
2022/08/30 06:07:42;;;;;;;5.07;4.47;;;;;;;26.67;53.92;101270.22;5016036;28;20509;-72
2022/08/30 06:10:11;;;;;;;5.50;5.00;;;;;;;26.68;53.92;101271.06;5016314;28;20042;-72
2022/08/30 06:12:38;;;;;;;4.53;4.10;;;;;;;26.69;53.77;101280.91;5015443;28;20050;-72
2022/08/30 06:15:06;;;;;;;9.57;5.50;;;;;;;26.67;53.40;101280.22;5004901;28;20541;-72
2022/08/30 06:17:34;;;;;;;8.45;6.68;;;;;;;26.64;53.31;101284.13;4996576;28;20376;-72
2022/08/30 06:20:02;;;;;;;8.70;6.10;;;;;;;26.61;53.13;101285.28;4996157;28;20046;-72
2022/08/30 06:22:29;;;;;;;7.25;5.75;;;;;;;26.55;52.87;101279.72;5011530;28;20061;-71
2022/08/30 06:24:56;;;;;;;7.43;6.22;;;;;;;26.52;52.92;101282.75;4997148;28;20413;-72
2022/08/30 06:27:24;;;;;;;9.45;6.82;;;;;;;26.48;53.32;101271.38;4996366;28;20050;-72
2022/08/30 06:29:52;;;;;;;8.80;6.28;;;;;;;26.47;53.38;101279.72;4996748;28;20474;-72
2022/08/30 06:32:20;;;;;;;7.03;5.82;;;;;;;26.45;53.75;101269.00;4996295;28;20046;-72
2022/08/30 06:34:48;;;;;;;6.88;5.38;;;;;;;26.44;53.76;101269.16;4996165;28;20389;-72
2022/08/30 06:37:15;;;;;;;5.78;5.07;;;;;;;26.46;54.19;101267.16;4996030;28;20046;-72
2022/08/30 06:39:58;;;;;;;9.10;7.63;;;;;;;26.47;54.66;101258.00;4996218;28;20042;-72
2022/08/30 06:42:30;;;;;;;8.38;7.28;;;;;;;26.46;54.33;101268.00;4995284;28;20073;-72
2022/08/30 06:45:02;;;;;;;8.05;7.25;;;;;;;26.43;54.63;101262.03;5011439;28;20510;-72
2022/08/30 06:47:38;;;;;;;7.47;6.68;;;;;;;26.41;54.59;101259.47;4996230;28;20054;-72
2022/08/30 06:50:06;;;;;;;7.63;6.53;;;;;;;26.41;54.54;101264.88;4996330;28;20038;-72
2022/08/30 06:52:43;;;;;;;9.07;7.22;;;;;;;26.43;54.59;101262.88;5010590;28;20413;-72
2022/08/30 06:55:12;;;;;;;10.45;6.57;;;;;;;26.44;54.86;101261.84;4996920;28;20046;-73
2022/08/30 06:57:40;;;;;;;11.85;6.65;;;;;;;26.43;54.69;101265.59;4996069;28;20046;-72
2022/08/30 07:00:10;;;;;;;9.50;7.25;;;;;;;26.44;54.87;101263.72;4996172;28;20046;-74
2022/08/30 07:02:38;;;;;;;8.02;6.63;;;;;;;26.44;54.83;101259.13;4994718;28;20050;-73
2022/08/30 07:05:07;;;;;;;11.50;7.43;;;;;;;26.42;54.80;101255.75;4995672;28;20065;-73
2022/08/30 07:07:35;;;;;;;8.85;8.00;;;;;;;26.42;54.54;101249.47;4995999;28;20410;-73
2022/08/30 07:10:04;;;;;;;13.98;7.97;;;;;;;26.38;54.76;101254.38;4995631;28;20042;-72
2022/08/30 07:12:32;;;;;;;9.15;6.97;;;;;;;26.37;54.72;101255.38;4996040;28;20398;-72
2022/08/30 07:15:01;;;;;;;8.85;7.05;;;;;;;26.35;54.72;101254.72;4995775;28;20050;-72
2022/08/30 07:20:15;;;;;;;8.82;6.00;;;;;;;26.36;54.76;101246.41;4996119;28;20065;-72
2022/08/30 07:22:42;;;;;;;12.55;6.40;;;;;;;26.40;54.84;101257.78;5010000;28;20050;-72
2022/08/30 07:25:09;;;;;;;7.60;5.72;;;;;;;26.40;55.11;101249.63;4995909;28;20043;-72
2022/08/30 07:27:37;;;;;;;9.65;6.63;;;;;;;26.42;55.28;101254.91;4995633;28;20042;-71
2022/08/30 07:30:08;;;;;;;9.35;7.80;;;;;;;26.40;55.02;101257.78;5026314;28;20042;-71
2022/08/30 07:32:37;;;;;;;10.20;7.32;;;;;;;26.37;55.21;101250.84;5014795;28;20053;-71
2022/08/30 07:35:04;;;;;;;11.55;7.32;;;;;;;26.36;55.15;101251.81;5014919;28;20042;-71
2022/08/30 07:37:32;;;;;;;8.40;6.60;;;;;;;26.38;55.21;101257.09;5015106;28;20486;-71
2022/08/30 07:39:59;;;;;;;8.85;6.75;;;;;;;26.37;55.29;101255.38;5014835;28;20049;-70
2022/08/30 07:42:39;;;;;;;7.90;7.10;;;;;;;26.37;54.97;101247.25;5014471;28;20053;-71
2022/08/30 07:45:11;;;;;;;7.15;6.43;;;;;;;26.37;55.12;101248.13;5014321;28;20042;-71
2022/08/30 07:47:44;;;;;;;6.25;5.45;;;;;;;26.39;55.11;101256.06;5014186;28;20056;-71
2022/08/30 07:50:12;;;;;;;7.22;5.70;;;;;;;26.42;55.18;101249.47;5014401;28;20037;-71
2022/08/30 07:52:39;;;;;;;6.63;5.88;;;;;;;26.45;55.11;101250.00;5014293;28;20050;-71
2022/08/30 07:55:08;;;;;;;7.35;5.70;;;;;;;26.49;55.06;101245.06;5014234;28;20037;-72
2022/08/30 07:57:36;;;;;;;7.78;5.63;;;;;;;26.50;55.12;101247.63;5014130;28;20410;-71
2022/08/30 08:00:04;;;;;;;6.32;5.50;;;;;;;26.55;54.90;101252.56;5014288;28;20069;-72
2022/08/30 08:02:39;;;;;;;6.47;5.15;;;;;;;26.57;54.59;101245.91;5020731;28;20069;-71
2022/08/30 08:05:08;;;;;;;6.05;5.53;;;;;;;26.62;54.49;101249.00;5014039;28;20057;-72
2022/08/30 08:07:42;;;;;;;6.82;5.03;;;;;;;26.66;54.39;101254.06;5014020;28;20056;-72
2022/08/30 08:10:10;;;;;;;8.73;5.30;;;;;;;26.69;54.49;101256.44;5014443;28;20045;-72
2022/08/30 08:12:37;;;;;;;8.75;5.88;;;;;;;26.72;54.00;101254.25;5014171;28;20041;-71
2022/08/30 08:15:05;;;;;;;7.30;5.97;;;;;;;26.75;54.29;101255.78;5014087;28;20045;-71
2022/08/30 08:17:36;;;;;;;6.05;4.60;;;;;;;26.76;53.93;101257.47;5013802;28;20048;-71
2022/08/30 08:20:04;;;;;;;5.85;5.13;;;;;;;26.75;54.31;101240.34;5014295;28;20049;-71
2022/08/30 08:22:31;;;;;;;7.78;5.35;;;;;;;26.79;54.15;101249.00;5012013;28;20053;-71
2022/08/30 08:25:03;;;;;;;5.88;5.28;;;;;;;26.79;54.11;101241.69;5013930;28;20046;-71
2022/08/30 08:27:30;;;;;;;7.07;5.90;;;;;;;26.81;54.00;101247.78;5013578;28;20406;-71
2022/08/30 08:29:57;;;;;;;7.47;5.60;;;;;;;26.82;54.10;101249.50;5013558;28;20076;-72
2022/08/30 08:32:25;;;;;;;6.07;4.85;;;;;;;26.82;54.31;101252.22;5013659;28;20053;-72
2022/08/30 08:34:52;;;;;;;7.75;5.88;;;;;;;26.82;54.60;101246.78;5013654;28;20050;-71
2022/08/30 08:37:20;;;;;;;8.68;7.60;;;;;;;26.79;54.75;101249.00;5013725;28;20045;-72
2022/08/30 08:39:54;;;;;;;7.05;6.03;;;;;;;26.79;54.77;101249.00;5013825;28;20450;-72
2022/08/30 08:42:50;;;;;;;7.25;6.30;;;;;;;26.80;55.01;101247.97;5013631;28;20410;-71
2022/08/30 08:45:33;;;;;;;11.18;7.05;;;;;;;26.84;54.70;101244.72;5012379;28;20050;-73
2022/08/30 08:48:08;;;;;;;8.13;7.35;;;;;;;26.86;55.12;101242.69;5013424;28;20379;-72
2022/08/30 08:53:33;;;;;;;8.00;7.28;;;;;;;26.89;54.83;101249.63;5013623;28;20398;-71
2022/08/30 08:53:36;;;;;;;10.25;6.68;;;;;;;26.91;54.80;101250.34;5013364;28;20058;-70
2022/08/30 08:56:15;;;;;;;11.27;9.68;;;;;;;26.94;55.12;101255.44;5013416;28;20501;-72
2022/08/30 08:58:50;;;;;;;10.73;7.50;;;;;;;26.97;55.02;101246.91;5013291;28;20050;-72
2022/08/30 09:01:21;;;;;;;8.18;7.38;;;;;;;26.98;55.02;101254.06;5013273;28;20410;-72
2022/08/30 09:03:50;;;;;;;8.25;7.03;;;;;;;27.00;54.70;101257.44;5013414;28;20058;-73
2022/08/30 09:06:33;;;;;;;6.75;6.05;;;;;;;27.00;54.78;101252.00;5012796;28;20058;-72
2022/08/30 09:09:00;;;;;;;8.23;7.43;;;;;;;27.02;54.95;101255.41;5013376;28;20042;-72
2022/08/30 09:11:32;;;;;;;7.85;6.57;;;;;;;27.05;54.96;101246.91;5012985;28;20060;-72
2022/08/30 09:14:00;;;;;;;9.05;6.32;;;;;;;27.07;54.82;101244.03;5013576;28;20045;-72
2022/08/30 09:16:48;;;;;;;8.15;7.35;;;;;;;27.04;55.29;101245.22;5013048;28;20042;-72
2022/08/30 09:19:57;;;;;;;9.95;7.07;;;;;;;27.03;55.46;101243.53;5013029;28;20058;-72
2022/08/30 09:22:35;;;;;;;8.68;7.65;;;;;;;27.00;55.25;101227.56;5013297;28;20053;-72
2022/08/30 09:25:19;;;;;;;9.18;6.93;;;;;;;26.98;55.41;101229.63;5013039;28;20042;-72
2022/08/30 09:27:49;;;;;;;9.00;7.40;;;;;;;26.98;55.67;101232.34;5013013;28;20053;-71
2022/08/30 09:30:22;;;;;;;7.60;6.82;;;;;;;26.99;55.63;101222.31;5013069;28;20049;-71
2022/08/30 09:32:51;;;;;;;6.88;6.20;;;;;;;26.99;55.65;101230.47;5013169;28;20509;-71
2022/08/30 09:35:41;;;;;;;10.40;6.65;;;;;;;27.00;55.72;101224.00;5012905;28;20041;-71
2022/08/30 09:38:22;;;;;;;9.50;7.43;;;;;;;26.99;56.01;101225.88;5013778;28;20058;-70
2022/08/30 09:40:56;;;;;;;8.02;7.30;;;;;;;26.98;56.16;101228.75;5013379;28;20378;-70
2022/08/30 09:43:29;;;;;;;7.63;6.93;;;;;;;26.96;56.05;101223.50;5013221;28;20053;-71
2022/08/30 09:46:00;;;;;;;7.93;7.13;;;;;;;26.96;55.79;101225.34;5013029;28;20045;-71
2022/08/30 09:48:36;;;;;;;7.47;6.80;;;;;;;26.96;56.06;101225.34;5013065;28;20053;-70
2022/08/30 09:51:10;;;;;;;8.32;7.00;;;;;;;26.95;55.94;101227.22;5011500;28;20514;-71
2022/08/30 09:53:46;;;;;;;12.13;6.47;;;;;;;26.95;55.83;101232.66;5012715;28;20042;-72
2022/08/30 09:56:52;;;;;;;6.38;5.78;;;;;;;26.97;56.03;101233.31;5012896;28;20089;-71
2022/08/30 09:59:37;;;;;;;7.90;6.05;;;;;;;26.98;56.01;101234.16;5011129;28;20493;-71
2022/08/30 10:02:15;;;;;;;6.57;5.93;;;;;;;27.01;56.09;101225.69;5012839;28;20049;-71
2022/08/30 10:04:42;;;;;;;7.10;6.40;;;;;;;27.04;56.44;101220.75;5012721;28;20056;-71
2022/08/30 10:07:24;;;;;;;6.97;6.18;;;;;;;27.06;56.53;101226.88;5012507;28;20050;-71
2022/08/30 10:10:01;;;;;;;6.43;5.82;;;;;;;27.08;56.29;101229.41;5012846;28;20509;-71
2022/08/30 10:12:42;;;;;;;10.80;6.47;;;;;;;27.08;56.45;101222.09;5012839;28;20053;-71
2022/08/30 10:15:31;;;;;;;8.45;7.00;;;;;;;27.08;57.00;101215.81;5012773;28;20061;-70
2022/08/30 10:18:04;;;;;;;7.35;6.65;;;;;;;27.09;56.83;101212.06;5031199;28;20096;-70
2022/08/30 10:20:40;;;;;;;8.35;6.82;;;;;;;27.09;57.04;101214.78;5016747;28;20038;-70
2022/08/30 10:23:24;;;;;;;7.07;6.38;;;;;;;27.10;56.75;101206.50;5016280;28;20045;-71
2022/08/30 10:26:06;;;;;;;7.95;6.45;;;;;;;27.10;56.82;101211.94;5016869;28;20053;-70
2022/08/30 10:28:42;;;;;;;7.70;6.78;;;;;;;27.13;56.82;101212.59;5016442;28;20050;-71
2022/08/30 10:31:40;;;;;;;7.43;6.72;;;;;;;27.18;56.39;101207.50;5016605;28;20056;-70
2022/08/30 10:34:19;;;;;;;6.82;6.18;;;;;;;27.20;56.27;101210.91;4994147;28;20059;-71
2022/08/30 10:36:54;;;;;;;6.82;6.20;;;;;;;27.20;56.46;101210.91;4994594;28;20062;-71
2022/08/30 10:39:26;;;;;;;6.90;6.30;;;;;;;27.20;56.35;101200.88;4978238;28;20065;-71
2022/08/30 10:42:15;;;;;;;7.80;7.00;;;;;;;27.20;56.72;101194.59;4994589;28;20514;-71
2022/08/30 10:45:01;;;;;;;8.32;7.15;;;;;;;27.20;56.40;101189.16;4994004;28;20054;-71
2022/08/30 10:47:40;;;;;;;8.30;7.32;;;;;;;27.20;56.57;101192.72;4994576;28;20553;-71
2022/08/30 10:50:15;;;;;;;7.53;6.82;;;;;;;27.20;56.75;101195.44;4994243;28;20065;-71
2022/08/30 10:52:55;;;;;;;10.13;7.57;;;;;;;27.19;56.92;101185.59;4994022;28;20535;-72
2022/08/30 10:55:29;;;;;;;7.68;6.97;;;;;;;27.21;57.04;101182.69;4993861;28;20047;-72
2022/08/30 10:58:04;;;;;;;8.65;7.45;;;;;;;27.22;56.81;101171.63;4977910;28;20074;-72
2022/08/30 11:00:44;;;;;;;8.25;7.45;;;;;;;27.25;57.08;101173.16;4994059;28;20061;-73
2022/08/30 11:03:14;;;;;;;9.27;7.50;;;;;;;27.27;57.21;101162.97;4993848;28;20513;-72
2022/08/30 11:05:57;;;;;;;9.30;7.35;;;;;;;27.30;57.00;101165.31;4991554;28;20471;-73
2022/08/30 11:08:54;;;;;;;8.30;6.95;;;;;;;27.31;56.82;101165.16;4993743;28;20054;-73
2022/08/30 11:11:42;;;;;;;7.97;7.22;;;;;;;27.31;56.97;101162.44;5005475;28;20409;-73
2022/08/30 11:14:15;;;;;;;7.40;6.57;;;;;;;27.33;57.12;101167.69;5015366;28;20049;-73
2022/08/30 11:16:44;;;;;;;;;;;;;;;27.32;57.13;101172.28;5014743;28;20068;-73
2022/08/30 11:19:28;;;;;;;8.27;6.55;;;;;;;27.32;57.04;101161.41;5015475;28;19944;-72
2022/08/30 11:22:32;;;;;;;6.93;6.32;;;;;;;27.32;56.68;101153.25;5015631;28;20057;-73
2022/08/30 11:25:14;;;;;;;6.82;6.07;;;;;;;27.32;56.61;101152.41;5014435;28;20050;-73
2022/08/30 11:27:49;;;;;;;12.35;5.90;;;;;;;27.32;56.77;101152.41;5014477;28;20053;-72
2022/08/30 11:30:23;;;;;;;5.55;4.82;;;;;;;27.33;56.47;101145.94;5014903;28;20046;-72
2022/08/30 11:33:02;;;;;;;6.22;5.68;;;;;;;27.33;56.42;101144.06;5015398;28;20045;-73
2022/08/30 11:35:52;;;;;;;6.65;6.00;;;;;;;27.34;56.49;101145.75;5014571;28;20042;-72
2022/08/30 11:38:19;;;;;;;6.97;5.93;;;;;;;27.34;56.52;101136.75;5015099;28;20053;-74
2022/08/30 11:40:54;;;;;;;6.30;5.68;;;;;;;27.33;56.54;101127.75;5014520;28;20053;-74
2022/08/30 11:43:33;;;;;;;6.15;5.53;;;;;;;27.34;56.69;101125.88;5014525;28;20049;-76
2022/08/30 11:46:27;;;;;;;7.55;6.13;;;;;;;27.35;56.66;101123.00;5014391;28;20463;-76
2022/08/30 11:49:18;;;;;;;6.40;5.03;;;;;;;27.38;57.10;101116.34;5014200;28;20054;-72
2022/08/30 11:52:11;;;;;;;6.15;5.55;;;;;;;27.39;57.03;101115.34;4992551;28;20396;-72